sensor_id;sensor_type;location;lat;lon;timestamp;pressure;altitude;pressure_sealevel;temperature;humidity
40205;BME280;26963;42.666;23.366;2024-02-26T00:01:38;94402.78;;;10.20;61.71
40205;BME280;26963;42.666;23.366;2024-02-26T00:04:04;94511.72;;;10.88;61.51
40205;BME280;26963;42.666;23.366;2024-02-26T00:06:30;94510.19;;;10.87;61.24
40205;BME280;26963;42.666;23.366;2024-02-26T00:08:56;94438.25;;;10.49;61.60
40205;BME280;26963;42.666;23.366;2024-02-26T00:11:22;94487.97;;;10.86;61.38
40205;BME280;26963;42.666;23.366;2024-02-26T00:13:48;94503.63;;;11.02;61.74
40205;BME280;26963;42.666;23.366;2024-02-26T00:16:13;94438.50;;;10.61;61.66
40205;BME280;26963;42.666;23.366;2024-02-26T00:18:39;94511.53;;;11.07;61.44
40205;BME280;26963;42.666;23.366;2024-02-26T00:21:05;94520.19;;;11.04;61.29
40205;BME280;26963;42.666;23.366;2024-02-26T00:23:30;94503.78;;;10.97;61.63
40205;BME280;26963;42.666;23.366;2024-02-26T00:25:57;94503.63;;;11.02;61.68
40205;BME280;26963;42.666;23.366;2024-02-26T00:28:23;94398.97;;;10.35;61.94
40205;BME280;26963;42.666;23.366;2024-02-26T00:30:50;94475.66;;;10.85;61.92
40205;BME280;26963;42.666;23.366;2024-02-26T00:33:16;94483.94;;;10.98;61.98
40205;BME280;26963;42.666;23.366;2024-02-26T00:35:42;94459.00;;;10.88;62.13
40205;BME280;26963;42.666;23.366;2024-02-26T00:38:08;94470.56;;;10.98;62.23
40205;BME280;26963;42.666;23.366;2024-02-26T00:40:34;94486.84;;;11.10;61.75
40205;BME280;26963;42.666;23.366;2024-02-26T00:43:00;94446.84;;;10.82;61.46
40205;BME280;26963;42.666;23.366;2024-02-26T00:45:25;94460.75;;;10.93;61.48
40205;BME280;26963;42.666;23.366;2024-02-26T00:47:51;94460.09;;;10.87;61.66
40205;BME280;26963;42.666;23.366;2024-02-26T00:50:16;94480.94;;;10.99;61.70
40205;BME280;26963;42.666;23.366;2024-02-26T00:52:42;94420.94;;;10.69;61.69
40205;BME280;26963;42.666;23.366;2024-02-26T00:55:08;94459.00;;;10.88;61.51
40205;BME280;26963;42.666;23.366;2024-02-26T00:57:33;94411.75;;;10.61;61.04
40205;BME280;26963;42.666;23.366;2024-02-26T00:59:59;94452.56;;;10.89;61.26
40205;BME280;26963;42.666;23.366;2024-02-26T01:02:26;94463.03;;;11.00;61.29
40205;BME280;26963;42.666;23.366;2024-02-26T01:04:52;94464.59;;;11.01;61.35
40205;BME280;26963;42.666;23.366;2024-02-26T01:07:19;94454.00;;;10.96;61.42
40205;BME280;26963;42.666;23.366;2024-02-26T01:09:45;94309.78;;;9.86;61.29
40205;BME280;26963;42.666;23.366;2024-02-26T01:12:10;94383.88;;;10.53;61.60
40205;BME280;26963;42.666;23.366;2024-02-26T01:14:36;94442.16;;;10.88;61.54
40205;BME280;26963;42.666;23.366;2024-02-26T01:17:01;94458.94;;;11.02;61.39
40205;BME280;26963;42.666;23.366;2024-02-26T01:19:28;94462.88;;;11.05;60.97
40205;BME280;26963;42.666;23.366;2024-02-26T01:21:54;94450.53;;;10.95;60.76
40205;BME280;26963;42.666;23.366;2024-02-26T01:24:19;94444.75;;;11.02;60.77
40205;BME280;26963;42.666;23.366;2024-02-26T01:26:45;94444.47;;;11.03;61.02
40205;BME280;26963;42.666;23.366;2024-02-26T01:29:11;94437.03;;;11.00;61.15
40205;BME280;26963;42.666;23.366;2024-02-26T01:31:36;94443.84;;;11.06;61.79
40205;BME280;26963;42.666;23.366;2024-02-26T01:34:02;94453.78;;;11.06;61.90
40205;BME280;26963;42.666;23.366;2024-02-26T01:36:27;94448.41;;;11.06;62.33
40205;BME280;26963;42.666;23.366;2024-02-26T01:38:53;94419.34;;;10.90;62.42
40205;BME280;26963;42.666;23.366;2024-02-26T01:41:18;94448.88;;;11.08;62.78
40205;BME280;26963;42.666;23.366;2024-02-26T01:43:44;94363.56;;;10.52;62.72
40205;BME280;26963;42.666;23.366;2024-02-26T01:46:12;94418.91;;;10.97;62.43
40205;BME280;26963;42.666;23.366;2024-02-26T01:48:40;94447.16;;;11.12;62.37
40205;BME280;26963;42.666;23.366;2024-02-26T01:51:06;94444.34;;;11.08;62.30
40205;BME280;26963;42.666;23.366;2024-02-26T01:53:32;94413.38;;;10.93;62.34
40205;BME280;26963;42.666;23.366;2024-02-26T01:55:59;94450.97;;;11.11;62.25
40205;BME280;26963;42.666;23.366;2024-02-26T01:58:24;94436.31;;;11.08;61.79
40205;BME280;26963;42.666;23.366;2024-02-26T02:00:50;94426.19;;;11.05;61.66
40205;BME280;26963;42.666;23.366;2024-02-26T02:03:15;94291.00;;;10.00;61.83
40205;BME280;26963;42.666;23.366;2024-02-26T02:05:42;94366.09;;;10.57;61.95
40205;BME280;26963;42.666;23.366;2024-02-26T02:08:10;94430.75;;;11.05;62.31
40205;BME280;26963;42.666;23.366;2024-02-26T02:10:38;94435.19;;;11.09;62.58
40205;BME280;26963;42.666;23.366;2024-02-26T02:13:04;94436.31;;;11.08;62.42
40205;BME280;26963;42.666;23.366;2024-02-26T02:15:29;94405.66;;;10.92;62.78
40205;BME280;26963;42.666;23.366;2024-02-26T02:17:55;94411.53;;;11.03;62.54
40205;BME280;26963;42.666;23.366;2024-02-26T02:20:33;94428.56;;;11.07;62.62
40205;BME280;26963;42.666;23.366;2024-02-26T02:22:59;94404.72;;;10.97;62.81
40205;BME280;26963;42.666;23.366;2024-02-26T02:25:25;94431.09;;;11.12;62.86
40205;BME280;26963;42.666;23.366;2024-02-26T02:27:52;94430.50;;;11.15;62.74
40205;BME280;26963;42.666;23.366;2024-02-26T02:30:20;94407.59;;;11.00;62.57
40205;BME280;26963;42.666;23.366;2024-02-26T02:32:46;94389.06;;;10.81;62.75
40205;BME280;26963;42.666;23.366;2024-02-26T02:35:11;94414.06;;;11.08;63.09
40205;BME280;26963;42.666;23.366;2024-02-26T02:37:37;94390.84;;;10.86;63.32
40205;BME280;26963;42.666;23.366;2024-02-26T02:40:03;94413.25;;;10.99;63.32
40205;BME280;26963;42.666;23.366;2024-02-26T02:42:28;94421.16;;;11.04;63.41
40205;BME280;26963;42.666;23.366;2024-02-26T02:44:54;94424.00;;;11.07;63.30
40205;BME280;26963;42.666;23.366;2024-02-26T02:47:19;94427.00;;;11.06;63.26
40205;BME280;26963;42.666;23.366;2024-02-26T02:49:45;94431.22;;;11.07;63.14
40205;BME280;26963;42.666;23.366;2024-02-26T02:52:11;94384.16;;;10.74;62.92
40205;BME280;26963;42.666;23.366;2024-02-26T02:54:36;94441.81;;;11.12;62.92
40205;BME280;26963;42.666;23.366;2024-02-26T02:57:05;94421.09;;;10.95;63.37
40205;BME280;26963;42.666;23.366;2024-02-26T02:59:31;94410.84;;;10.88;63.47
40205;BME280;26963;42.666;23.366;2024-02-26T03:01:57;94440.38;;;11.06;63.51
40205;BME280;26963;42.666;23.366;2024-02-26T03:04:22;94423.78;;;10.95;63.18
40205;BME280;26963;42.666;23.366;2024-02-26T03:06:48;94407.63;;;10.77;63.43
40205;BME280;26963;42.666;23.366;2024-02-26T03:09:14;94295.13;;;10.06;63.40
40205;BME280;26963;42.666;23.366;2024-02-26T03:11:39;94446.81;;;11.05;63.53
40205;BME280;26963;42.666;23.366;2024-02-26T03:14:05;94452.06;;;11.10;64.11
40205;BME280;26963;42.666;23.366;2024-02-26T03:16:31;94455.31;;;11.07;63.89
40205;BME280;26963;42.666;23.366;2024-02-26T03:18:57;94439.25;;;11.07;63.75
40205;BME280;26963;42.666;23.366;2024-02-26T03:21:24;94376.25;;;10.69;63.56
40205;BME280;26963;42.666;23.366;2024-02-26T03:23:51;94441.38;;;11.19;63.57
40205;BME280;26963;42.666;23.366;2024-02-26T03:26:17;94427.81;;;11.15;63.31
40205;BME280;26963;42.666;23.366;2024-02-26T03:28:42;94355.94;;;10.68;63.10
40205;BME280;26963;42.666;23.366;2024-02-26T03:31:08;94424.97;;;11.12;63.14
40205;BME280;26963;42.666;23.366;2024-02-26T03:33:34;94329.03;;;10.42;63.34
40205;BME280;26963;42.666;23.366;2024-02-26T03:35:59;94426.00;;;11.02;63.47
40205;BME280;26963;42.666;23.366;2024-02-26T03:38:25;94398.19;;;10.80;63.51
40205;BME280;26963;42.666;23.366;2024-02-26T03:40:51;94424.47;;;11.01;63.82
40205;BME280;26963;42.666;23.366;2024-02-26T03:43:17;94411.81;;;10.92;63.78
40205;BME280;26963;42.666;23.366;2024-02-26T03:45:42;94424.59;;;11.04;64.10
40205;BME280;26963;42.666;23.366;2024-02-26T03:48:08;94427.28;;;11.04;63.67
40205;BME280;26963;42.666;23.366;2024-02-26T03:50:34;94406.72;;;10.82;63.79
40205;BME280;26963;42.666;23.366;2024-02-26T03:53:00;94405.31;;;10.85;63.74
40205;BME280;26963;42.666;23.366;2024-02-26T03:55:25;94348.38;;;10.39;64.29
40205;BME280;26963;42.666;23.366;2024-02-26T03:57:54;94417.03;;;10.75;64.77
40205;BME280;26963;42.666;23.366;2024-02-26T04:00:20;94428.25;;;10.77;65.14
40205;BME280;26963;42.666;23.366;2024-02-26T04:02:47;94372.63;;;10.42;65.06
40205;BME280;26963;42.666;23.366;2024-02-26T04:05:13;94397.59;;;10.60;64.92
40205;BME280;26963;42.666;23.366;2024-02-26T04:07:40;94408.56;;;10.73;65.37
40205;BME280;26963;42.666;23.366;2024-02-26T04:10:12;94415.53;;;10.60;65.73
40205;BME280;26963;42.666;23.366;2024-02-26T04:12:41;94391.81;;;10.44;65.91
40205;BME280;26963;42.666;23.366;2024-02-26T04:15:08;94385.69;;;10.44;65.68
40205;BME280;26963;42.666;23.366;2024-02-26T04:17:35;94330.22;;;10.13;65.31
40205;BME280;26963;42.666;23.366;2024-02-26T04:20:02;94405.63;;;10.60;65.53
40205;BME280;26963;42.666;23.366;2024-02-26T04:22:28;94402.00;;;10.56;65.81
40205;BME280;26963;42.666;23.366;2024-02-26T04:24:54;94391.25;;;10.34;66.21
40205;BME280;26963;42.666;23.366;2024-02-26T04:27:19;94398.78;;;10.32;66.46
40205;BME280;26963;42.666;23.366;2024-02-26T04:29:45;94408.31;;;10.38;66.50
40205;BME280;26963;42.666;23.366;2024-02-26T04:32:10;94327.72;;;9.94;65.90
40205;BME280;26963;42.666;23.366;2024-02-26T04:34:36;94370.00;;;10.28;65.99
40205;BME280;26963;42.666;23.366;2024-02-26T04:37:02;94323.31;;;9.89;65.67
40205;BME280;26963;42.666;23.366;2024-02-26T04:39:27;94408.88;;;10.35;66.05
40205;BME280;26963;42.666;23.366;2024-02-26T04:41:53;94415.03;;;10.35;65.94
40205;BME280;26963;42.666;23.366;2024-02-26T04:44:18;94352.53;;;9.86;66.21
40205;BME280;26963;42.666;23.366;2024-02-26T04:46:44;94416.59;;;10.14;66.23
40205;BME280;26963;42.666;23.366;2024-02-26T04:49:10;94297.13;;;9.27;65.87
40205;BME280;26963;42.666;23.366;2024-02-26T04:51:35;94413.22;;;10.08;65.10
40205;BME280;26963;42.666;23.366;2024-02-26T04:54:02;94406.28;;;10.07;64.83
40205;BME280;26963;42.666;23.366;2024-02-26T04:56:28;94394.03;;;10.06;64.36
40205;BME280;26963;42.666;23.366;2024-02-26T04:58:54;94413.47;;;10.20;65.06
40205;BME280;26963;42.666;23.366;2024-02-26T05:01:19;94384.09;;;9.84;66.48
40205;BME280;26963;42.666;23.366;2024-02-26T05:03:45;94407.94;;;9.80;67.45
40205;BME280;26963;42.666;23.366;2024-02-26T05:06:11;94407.28;;;9.60;68.19
40205;BME280;26963;42.666;23.366;2024-02-26T05:08:36;94424.78;;;9.81;68.06
40205;BME280;26963;42.666;23.366;2024-02-26T05:11:03;94360.63;;;9.30;68.47
40205;BME280;26963;42.666;23.366;2024-02-26T05:13:29;94415.94;;;9.80;68.19
40205;BME280;26963;42.666;23.366;2024-02-26T05:15:55;94425.13;;;9.88;68.11
40205;BME280;26963;42.666;23.366;2024-02-26T05:18:22;94410.28;;;9.82;67.95
40205;BME280;26963;42.666;23.366;2024-02-26T05:20:48;94374.03;;;9.67;67.29
40205;BME280;26963;42.666;23.366;2024-02-26T05:23:13;94436.50;;;10.07;67.38
40205;BME280;26963;42.666;23.366;2024-02-26T05:25:40;94343.88;;;9.52;67.09
40205;BME280;26963;42.666;23.366;2024-02-26T05:28:06;94430.72;;;10.14;67.07
40205;BME280;26963;42.666;23.366;2024-02-26T05:30:32;94409.47;;;10.09;66.59
40205;BME280;26963;42.666;23.366;2024-02-26T05:33:00;94346.22;;;9.68;66.44
40205;BME280;26963;42.666;23.366;2024-02-26T05:35:26;94471.09;;;10.40;66.51
40205;BME280;26963;42.666;23.366;2024-02-26T05:37:51;94444.38;;;10.26;66.33
40205;BME280;26963;42.666;23.366;2024-02-26T05:40:17;94464.53;;;10.47;66.17
40205;BME280;26963;42.666;23.366;2024-02-26T05:42:43;94447.34;;;10.39;66.06
40205;BME280;26963;42.666;23.366;2024-02-26T05:45:10;94441.06;;;10.29;65.70
40205;BME280;26963;42.666;23.366;2024-02-26T05:47:36;94414.69;;;10.14;66.08
40205;BME280;26963;42.666;23.366;2024-02-26T05:50:11;94481.13;;;10.57;65.96
40205;BME280;26963;42.666;23.366;2024-02-26T05:52:37;94452.44;;;10.49;65.90
40205;BME280;26963;42.666;23.366;2024-02-26T05:55:06;94470.69;;;10.70;65.95
40205;BME280;26963;42.666;23.366;2024-02-26T05:57:34;94455.66;;;10.60;65.99
40205;BME280;26963;42.666;23.366;2024-02-26T05:59:59;94479.09;;;10.77;66.20
40205;BME280;26963;42.666;23.366;2024-02-26T06:02:31;94247.69;;;9.29;66.08
40205;BME280;26963;42.666;23.366;2024-02-26T06:04:57;94412.13;;;10.46;65.40
40205;BME280;26963;42.666;23.366;2024-02-26T06:07:23;94491.13;;;10.88;65.18
40205;BME280;26963;42.666;23.366;2024-02-26T06:09:49;94480.56;;;10.83;64.73
40205;BME280;26963;42.666;23.366;2024-02-26T06:12:15;94482.00;;;10.89;64.47
40205;BME280;26963;42.666;23.366;2024-02-26T06:14:42;94492.09;;;10.92;64.26
40205;BME280;26963;42.666;23.366;2024-02-26T06:17:07;94408.31;;;10.38;64.29
40205;BME280;26963;42.666;23.366;2024-02-26T06:19:33;94410.56;;;10.44;64.16
40205;BME280;26963;42.666;23.366;2024-02-26T06:21:59;94419.53;;;10.49;63.93
40205;BME280;26963;42.666;23.366;2024-02-26T06:24:25;94484.91;;;11.02;64.02
40205;BME280;26963;42.666;23.366;2024-02-26T06:26:50;94435.91;;;10.70;63.90
40205;BME280;26963;42.666;23.366;2024-02-26T06:29:16;94476.88;;;11.02;63.79
40205;BME280;26963;42.666;23.366;2024-02-26T06:31:41;94313.84;;;10.06;63.39
40205;BME280;26963;42.666;23.366;2024-02-26T06:34:10;94409.34;;;10.73;63.23
40205;BME280;26963;42.666;23.366;2024-02-26T06:36:36;94480.88;;;11.13;63.17
40205;BME280;26963;42.666;23.366;2024-02-26T06:39:02;94330.09;;;9.95;63.31
40205;BME280;26963;42.666;23.366;2024-02-26T06:41:28;94498.84;;;10.90;64.16
40205;BME280;26963;42.666;23.366;2024-02-26T06:43:55;94488.97;;;10.76;64.57
40205;BME280;26963;42.666;23.366;2024-02-26T06:46:21;94438.41;;;10.29;65.28
40205;BME280;26963;42.666;23.366;2024-02-26T06:48:48;94500.66;;;10.58;65.58
40205;BME280;26963;42.666;23.366;2024-02-26T06:51:13;94425.69;;;10.12;66.03
40205;BME280;26963;42.666;23.366;2024-02-26T06:53:39;94498.19;;;10.62;65.92
40205;BME280;26963;42.666;23.366;2024-02-26T06:56:05;94445.34;;;10.31;65.81
40205;BME280;26963;42.666;23.366;2024-02-26T06:58:30;94489.66;;;10.59;65.91
40205;BME280;26963;42.666;23.366;2024-02-26T07:00:56;94366.78;;;9.81;65.94
40205;BME280;26963;42.666;23.366;2024-02-26T07:03:21;94490.84;;;10.53;66.07
40205;BME280;26963;42.666;23.366;2024-02-26T07:05:51;94493.53;;;10.53;66.03
40205;BME280;26963;42.666;23.366;2024-02-26T07:08:17;94480.28;;;10.48;66.30
40205;BME280;26963;42.666;23.366;2024-02-26T07:10:43;94502.91;;;10.65;66.18
40205;BME280;26963;42.666;23.366;2024-02-26T07:13:08;94474.31;;;10.51;65.94
40205;BME280;26963;42.666;23.366;2024-02-26T07:15:34;94505.84;;;10.77;65.94
40205;BME280;26963;42.666;23.366;2024-02-26T07:18:00;94485.66;;;10.71;65.45
40205;BME280;26963;42.666;23.366;2024-02-26T07:20:31;94510.00;;;10.83;65.85
40205;BME280;26963;42.666;23.366;2024-02-26T07:22:57;94504.97;;;10.90;65.62
40205;BME280;26963;42.666;23.366;2024-02-26T07:25:23;94511.66;;;11.02;65.35
40205;BME280;26963;42.666;23.366;2024-02-26T07:27:52;94488.69;;;11.01;65.00
40205;BME280;26963;42.666;23.366;2024-02-26T07:30:18;94503.03;;;11.28;64.06
40205;BME280;26963;42.666;23.366;2024-02-26T07:32:43;94504.34;;;11.39;63.88
40205;BME280;26963;42.666;23.366;2024-02-26T07:35:10;94501.19;;;11.37;64.24
40205;BME280;26963;42.666;23.366;2024-02-26T07:37:35;94483.09;;;11.11;64.01
40205;BME280;26963;42.666;23.366;2024-02-26T07:40:01;94441.97;;;10.84;64.64
40205;BME280;26963;42.666;23.366;2024-02-26T07:42:27;94490.19;;;11.16;64.87
40205;BME280;26963;42.666;23.366;2024-02-26T07:44:52;94472.94;;;10.76;65.42
40205;BME280;26963;42.666;23.366;2024-02-26T07:47:19;94502.44;;;10.85;66.41
40205;BME280;26963;42.666;23.366;2024-02-26T07:49:44;94490.38;;;10.74;67.17
40205;BME280;26963;42.666;23.366;2024-02-26T07:52:10;94504.50;;;10.66;67.26
40205;BME280;26963;42.666;23.366;2024-02-26T07:54:36;94494.88;;;10.65;68.13
40205;BME280;26963;42.666;23.366;2024-02-26T07:57:02;94493.22;;;10.55;68.64
40205;BME280;26963;42.666;23.366;2024-02-26T07:59:31;94491.47;;;10.50;68.94
40205;BME280;26963;42.666;23.366;2024-02-26T08:01:57;94471.50;;;10.34;69.50
40205;BME280;26963;42.666;23.366;2024-02-26T08:04:22;94494.38;;;10.63;69.15
40205;BME280;26963;42.666;23.366;2024-02-26T08:06:48;94433.84;;;10.30;68.12
40205;BME280;26963;42.666;23.366;2024-02-26T08:09:13;94359.38;;;9.78;67.90
40205;BME280;26963;42.666;23.366;2024-02-26T08:11:39;94489.66;;;10.82;66.49
40205;BME280;26963;42.666;23.366;2024-02-26T08:14:05;94462.16;;;10.68;64.78
40205;BME280;26963;42.666;23.366;2024-02-26T08:16:30;94467.63;;;11.08;63.94
40205;BME280;26963;42.666;23.366;2024-02-26T08:18:56;94502.84;;;11.55;64.56
40205;BME280;26963;42.666;23.366;2024-02-26T08:21:22;94479.38;;;11.61;65.31
40205;BME280;26963;42.666;23.366;2024-02-26T08:23:47;94488.47;;;11.91;65.04
40205;BME280;26963;42.666;23.366;2024-02-26T08:26:13;94466.97;;;11.74;65.13
40205;BME280;26963;42.666;23.366;2024-02-26T08:28:39;94454.31;;;11.57;64.95
40205;BME280;26963;42.666;23.366;2024-02-26T08:31:04;94459.06;;;11.69;64.76
40205;BME280;26963;42.666;23.366;2024-02-26T08:33:30;94499.81;;;11.88;64.81
40205;BME280;26963;42.666;23.366;2024-02-26T08:35:56;94479.97;;;11.89;64.42
40205;BME280;26963;42.666;23.366;2024-02-26T08:38:22;94484.28;;;12.17;63.63
40205;BME280;26963;42.666;23.366;2024-02-26T08:40:48;94489.53;;;12.39;61.99
40205;BME280;26963;42.666;23.366;2024-02-26T08:43:14;94492.06;;;12.53;60.80
40205;BME280;26963;42.666;23.366;2024-02-26T08:45:40;94483.38;;;12.65;59.55
40205;BME280;26963;42.666;23.366;2024-02-26T08:48:06;94485.59;;;12.89;58.87
40205;BME280;26963;42.666;23.366;2024-02-26T08:50:32;94435.88;;;12.66;58.62
40205;BME280;26963;42.666;23.366;2024-02-26T08:52:58;94494.88;;;13.18;58.13
40205;BME280;26963;42.666;23.366;2024-02-26T08:55:26;94478.56;;;13.24;56.28
40205;BME280;26963;42.666;23.366;2024-02-26T08:57:52;94498.34;;;13.28;55.29
40205;BME280;26963;42.666;23.366;2024-02-26T09:00:18;94439.31;;;12.93;55.06
40205;BME280;26963;42.666;23.366;2024-02-26T09:02:47;94315.81;;;12.19;54.47
40205;BME280;26963;42.666;23.366;2024-02-26T09:05:12;94482.22;;;13.45;54.76
40205;BME280;26963;42.666;23.366;2024-02-26T09:07:38;94484.06;;;13.53;54.57
40205;BME280;26963;42.666;23.366;2024-02-26T09:10:05;94481.31;;;13.71;54.45
40205;BME280;26963;42.666;23.366;2024-02-26T09:12:31;94454.31;;;13.59;54.39
40205;BME280;26963;42.666;23.366;2024-02-26T09:14:57;94473.53;;;13.78;54.37
40205;BME280;26963;42.666;23.366;2024-02-26T09:17:23;94412.97;;;13.42;54.63
40205;BME280;26963;42.666;23.366;2024-02-26T09:19:48;94414.22;;;13.36;54.90
40205;BME280;26963;42.666;23.366;2024-02-26T09:22:14;94408.34;;;13.51;54.82
40205;BME280;26963;42.666;23.366;2024-02-26T09:24:40;94420.13;;;13.68;54.31
40205;BME280;26963;42.666;23.366;2024-02-26T09:27:06;94406.50;;;13.73;53.66
40205;BME280;26963;42.666;23.366;2024-02-26T09:29:31;94467.41;;;13.99;53.79
40205;BME280;26963;42.666;23.366;2024-02-26T09:31:58;94462.03;;;13.99;53.94
40205;BME280;26963;42.666;23.366;2024-02-26T09:34:24;94470.34;;;14.15;53.90
40205;BME280;26963;42.666;23.366;2024-02-26T09:36:49;94457.47;;;14.21;53.76
40205;BME280;26963;42.666;23.366;2024-02-26T09:39:15;94428.00;;;14.03;52.49
40205;BME280;26963;42.666;23.366;2024-02-26T09:41:45;94408.97;;;13.87;51.84
40205;BME280;26963;42.666;23.366;2024-02-26T09:44:14;94449.88;;;14.23;51.50
40205;BME280;26963;42.666;23.366;2024-02-26T09:46:42;94449.88;;;14.23;51.64
40205;BME280;26963;42.666;23.366;2024-02-26T09:49:08;94416.22;;;14.16;51.29
40205;BME280;26963;42.666;23.366;2024-02-26T09:51:35;94413.25;;;13.79;50.75
40205;BME280;26963;42.666;23.366;2024-02-26T09:54:01;94452.66;;;13.75;51.83
40205;BME280;26963;42.666;23.366;2024-02-26T09:56:27;94423.56;;;13.77;52.07
40205;BME280;26963;42.666;23.366;2024-02-26T09:58:58;94456.75;;;13.81;51.94
40205;BME280;26963;42.666;23.366;2024-02-26T10:01:24;94449.78;;;13.80;52.07
40205;BME280;26963;42.666;23.366;2024-02-26T10:03:57;94456.75;;;13.81;52.36
40205;BME280;26963;42.666;23.366;2024-02-26T10:06:25;94442.19;;;13.82;52.62
40205;BME280;26963;42.666;23.366;2024-02-26T10:08:53;94448.75;;;13.64;52.40
40205;BME280;26963;42.666;23.366;2024-02-26T10:11:20;94424.00;;;13.49;53.14
40205;BME280;26963;42.666;23.366;2024-02-26T10:13:47;94436.91;;;13.65;52.37
40205;BME280;26963;42.666;23.366;2024-02-26T10:16:13;94452.22;;;13.73;52.01
40205;BME280;26963;42.666;23.366;2024-02-26T10:18:47;94449.53;;;13.73;52.49
40205;BME280;26963;42.666;23.366;2024-02-26T10:21:13;94385.19;;;13.38;51.48
40205;BME280;26963;42.666;23.366;2024-02-26T10:23:42;94395.56;;;13.48;51.80
40205;BME280;26963;42.666;23.366;2024-02-26T10:26:10;94443.50;;;13.76;51.80
40205;BME280;26963;42.666;23.366;2024-02-26T10:28:36;94433.41;;;13.73;51.87
40205;BME280;26963;42.666;23.366;2024-02-26T10:31:02;94420.59;;;13.70;52.28
40205;BME280;26963;42.666;23.366;2024-02-26T10:33:28;94402.16;;;13.90;51.45
40205;BME280;26963;42.666;23.366;2024-02-26T10:35:54;94416.78;;;14.01;50.32
40205;BME280;26963;42.666;23.366;2024-02-26T10:38:19;94428.84;;;13.95;50.20
40205;BME280;26963;42.666;23.366;2024-02-26T10:40:48;94380.41;;;13.74;50.79
40205;BME280;26963;42.666;23.366;2024-02-26T10:43:14;94358.19;;;13.64;50.98
40205;BME280;26963;42.666;23.366;2024-02-26T10:45:42;94392.50;;;13.89;50.65
40205;BME280;26963;42.666;23.366;2024-02-26T10:48:13;94412.91;;;14.11;50.45
40205;BME280;26963;42.666;23.366;2024-02-26T10:50:40;94377.00;;;13.85;50.18
40205;BME280;26963;42.666;23.366;2024-02-26T10:53:36;94414.28;;;13.96;50.28
40205;BME280;26963;42.666;23.366;2024-02-26T10:56:03;94262.06;;;13.01;50.37
40205;BME280;26963;42.666;23.366;2024-02-26T10:58:31;94281.19;;;13.30;50.22
40205;BME280;26963;42.666;23.366;2024-02-26T11:00:57;94339.22;;;13.82;50.14
40205;BME280;26963;42.666;23.366;2024-02-26T11:03:23;94416.03;;;14.43;49.30
40205;BME280;26963;42.666;23.366;2024-02-26T11:05:50;94410.09;;;14.28;49.18
40205;BME280;26963;42.666;23.366;2024-02-26T11:08:18;94384.63;;;14.26;49.34
40205;BME280;26963;42.666;23.366;2024-02-26T11:10:47;94395.06;;;14.48;49.25
40205;BME280;26963;42.666;23.366;2024-02-26T11:13:14;94400.72;;;14.56;48.51
40205;BME280;26963;42.666;23.366;2024-02-26T11:15:41;94380.28;;;14.55;49.07
40205;BME280;26963;42.666;23.366;2024-02-26T11:18:09;94408.31;;;14.75;48.45
40205;BME280;26963;42.666;23.366;2024-02-26T11:20:38;94377.38;;;14.60;48.01
40205;BME280;26963;42.666;23.366;2024-02-26T11:23:05;94398.94;;;14.81;47.79
40205;BME280;26963;42.666;23.366;2024-02-26T11:25:32;94343.03;;;14.44;48.17
40205;BME280;26963;42.666;23.366;2024-02-26T11:28:04;94395.28;;;14.64;48.03
40205;BME280;26963;42.666;23.366;2024-02-26T11:30:33;94397.47;;;14.62;48.37
40205;BME280;26963;42.666;23.366;2024-02-26T11:33:00;94388.03;;;14.77;48.12
40205;BME280;26963;42.666;23.366;2024-02-26T11:35:27;94399.69;;;14.60;48.36
40205;BME280;26963;42.666;23.366;2024-02-26T11:37:54;94363.19;;;14.38;48.11
40205;BME280;26963;42.666;23.366;2024-02-26T11:40:23;94387.91;;;14.52;48.21
40205;BME280;26963;42.666;23.366;2024-02-26T11:42:50;94381.47;;;14.45;48.04
40205;BME280;26963;42.666;23.366;2024-02-26T11:48:14;94166.75;;;12.86;48.26
40205;BME280;26963;42.666;23.366;2024-02-26T11:50:42;94365.09;;;14.16;47.94
40205;BME280;26963;42.666;23.366;2024-02-26T11:53:21;94337.38;;;14.16;47.87
40205;BME280;26963;42.666;23.366;2024-02-26T11:55:47;94328.28;;;14.08;47.88
40205;BME280;26963;42.666;23.366;2024-02-26T11:58:14;94326.06;;;14.10;47.78
40205;BME280;26963;42.666;23.366;2024-02-26T12:00:42;94320.34;;;14.12;47.50
40205;BME280;26963;42.666;23.366;2024-02-26T12:03:08;94318.63;;;14.07;47.22
40205;BME280;26963;42.666;23.366;2024-02-26T12:05:36;94382.16;;;14.42;47.65
40205;BME280;26963;42.666;23.366;2024-02-26T12:08:04;94361.81;;;14.32;47.28
40205;BME280;26963;42.666;23.366;2024-02-26T12:10:40;94390.66;;;14.44;47.19
40205;BME280;26963;42.666;23.366;2024-02-26T12:15:47;94339.09;;;14.21;47.21
40205;BME280;26963;42.666;23.366;2024-02-26T12:18:20;94313.50;;;14.14;46.40
40205;BME280;26963;42.666;23.366;2024-02-26T12:21:14;94374.53;;;14.65;46.40
40205;BME280;26963;42.666;23.366;2024-02-26T12:23:41;94200.16;;;13.49;46.02
40205;BME280;26963;42.666;23.366;2024-02-26T12:26:07;94338.06;;;14.46;45.72
40205;BME280;26963;42.666;23.366;2024-02-26T12:28:33;94377.22;;;14.65;45.75
40205;BME280;26963;42.666;23.366;2024-02-26T12:30:59;94355.16;;;14.50;46.12
40205;BME280;26963;42.666;23.366;2024-02-26T12:33:25;94377.22;;;14.65;46.16
40205;BME280;26963;42.666;23.366;2024-02-26T12:35:52;94382.66;;;14.77;45.57
40205;BME280;26963;42.666;23.366;2024-02-26T12:38:18;94366.63;;;14.60;45.55
40205;BME280;26963;42.666;23.366;2024-02-26T12:40:44;94352.34;;;14.47;45.76
40205;BME280;26963;42.666;23.366;2024-02-26T12:43:10;94371.81;;;14.65;45.36
40205;BME280;26963;42.666;23.366;2024-02-26T12:45:42;94378.63;;;14.96;45.07
40205;BME280;26963;42.666;23.366;2024-02-26T12:48:09;94371.22;;;14.93;43.44
40205;BME280;26963;42.666;23.366;2024-02-26T12:50:35;94319.81;;;14.86;43.59
40205;BME280;26963;42.666;23.366;2024-02-26T12:53:00;94360.28;;;15.23;43.66